Time;durP1;ratioP1;P1;durP2;ratioP2;P2;SDS_P1;SDS_P2;PMS_P1;PMS_P2;Temp;Humidity;BMP_temperature;BMP_pressure;BME280_temperature;BME280_humidity;BME280_pressure;Samples;Min_cycle;Max_cycle;Signal;HPM_P1;HPM_P2
2021/06/09 00:00:22;;;;;;;9.10;8.15;;;22.00;68.50;;;;;;5072708;28;20041;-64
2021/06/09 00:02:47;;;;;;;10.70;8.93;;;22.00;68.90;;;;;;5060727;28;20045;-64
2021/06/09 00:05:13;;;;;;;9.90;8.90;;;21.90;69.00;;;;;;5072564;28;20040;-64
2021/06/09 00:07:39;;;;;;;12.38;11.10;;;21.90;69.20;;;;;;5076866;28;20118;-64
2021/06/09 00:10:05;;;;;;;13.25;10.48;;;21.90;69.30;;;;;;5072834;28;20145;-64
2021/06/09 00:12:32;;;;;;;12.35;11.00;;;21.90;69.90;;;;;;5058571;28;20108;-64
2021/06/09 00:14:59;;;;;;;15.82;14.13;;;21.90;69.10;;;;;;5079949;28;20032;-64
2021/06/09 00:17:26;;;;;;;14.27;12.75;;;21.90;69.70;;;;;;5078883;28;20039;-63
2021/06/09 00:19:51;;;;;;;15.88;13.82;;;21.80;69.70;;;;;;5061315;28;20032;-65
2021/06/09 00:22:17;;;;;;;14.23;12.75;;;21.80;70.30;;;;;;5072565;28;20571;-64
2021/06/09 00:24:44;;;;;;;9.73;8.73;;;21.80;70.50;;;;;;5062488;28;20767;-64
2021/06/09 00:27:10;;;;;;;8.30;6.85;;;21.80;70.20;;;;;;5069405;28;20071;-64
2021/06/09 00:29:36;;;;;;;7.72;6.28;;;21.80;70.20;;;;;;5072827;28;20063;-64
2021/06/09 00:32:02;;;;;;;7.65;6.20;;;21.70;70.10;;;;;;5062856;28;20039;-64
2021/06/09 00:34:28;;;;;;;7.75;6.95;;;21.80;70.00;;;;;;5059499;28;20036;-64
2021/06/09 00:36:54;;;;;;;9.48;6.20;;;21.70;70.10;;;;;;5067135;28;20081;-62
2021/06/09 00:39:19;;;;;;;13.18;10.52;;;21.70;70.30;;;;;;5062530;28;20035;-64
2021/06/09 00:41:45;;;;;;;27.85;23.27;;;21.70;70.40;;;;;;5062341;28;20040;-64
2021/06/09 00:44:11;;;;;;;26.40;23.55;;;21.70;71.10;;;;;;5063627;28;20555;-61
2021/06/09 00:46:38;;;;;;;23.63;20.75;;;21.70;71.40;;;;;;5069668;28;20145;-62
2021/06/09 00:49:06;;;;;;;32.50;27.38;;;21.70;71.70;;;;;;5061103;28;20044;-62
2021/06/09 00:51:32;;;;;;;28.67;25.63;;;21.70;72.20;;;;;;5069824;28;20032;-62
2021/06/09 00:54:03;;;;;;;30.98;27.77;;;21.70;72.30;;;;;;5076899;28;20028;-62
2021/06/09 00:56:30;;;;;;;31.92;28.48;;;21.70;72.40;;;;;;5059408;28;20033;-62
2021/06/09 00:58:56;;;;;;;32.60;28.58;;;21.70;73.00;;;;;;5063408;28;20036;-62
2021/06/09 01:01:26;;;;;;;30.60;27.25;;;21.70;73.10;;;;;;5073325;28;20051;-63
2021/06/09 01:03:52;;;;;;;31.17;27.90;;;21.70;73.50;;;;;;5067414;28;20036;-63
2021/06/09 01:06:19;;;;;;;32.40;27.85;;;21.60;73.50;;;;;;5052840;28;20040;-63
2021/06/09 01:08:46;;;;;;;29.38;26.27;;;21.60;73.80;;;;;;5058950;28;20037;-63
2021/06/09 01:11:15;;;;;;;29.10;25.90;;;21.60;74.00;;;;;;5067439;28;20101;-63
2021/06/09 01:13:41;;;;;;;30.35;27.15;;;21.60;74.40;;;;;;5064746;28;20055;-63
2021/06/09 01:16:07;;;;;;;30.15;26.92;;;21.60;74.20;;;;;;5063776;28;20037;-64
2021/06/09 01:18:33;;;;;;;28.63;25.63;;;21.60;74.30;;;;;;5078875;28;20135;-63
2021/06/09 01:20:59;;;;;;;28.45;24.80;;;21.50;74.40;;;;;;5066825;28;20045;-62
2021/06/09 01:23:26;;;;;;;28.70;25.60;;;21.60;75.00;;;;;;5067190;28;20040;-63
2021/06/09 01:25:52;;;;;;;29.92;24.80;;;21.50;75.20;;;;;;5064724;28;20097;-63
2021/06/09 01:28:18;;;;;;;26.80;24.02;;;21.50;75.30;;;;;;5062233;28;20040;-64
2021/06/09 01:30:44;;;;;;;28.45;25.38;;;21.40;75.60;;;;;;5069346;28;20043;-63
2021/06/09 01:33:10;;;;;;;32.45;26.27;;;21.40;75.90;;;;;;5075190;28;20052;-63
2021/06/09 01:35:37;;;;;;;31.60;26.55;;;21.40;76.00;;;;;;5086452;28;20032;-64
2021/06/09 01:38:05;;;;;;;28.85;25.88;;;21.40;76.30;;;;;;5076975;28;20086;-63
2021/06/09 01:40:31;;;;;;;31.63;26.92;;;21.40;76.30;;;;;;5083873;28;20040;-63
2021/06/09 01:42:58;;;;;;;28.23;23.92;;;21.40;76.60;;;;;;5066175;28;20406;-63
2021/06/09 01:45:30;;;;;;;27.02;24.13;;;21.40;76.40;;;;;;5070939;28;20101;-59
2021/06/09 01:47:56;;;;;;;26.15;23.48;;;21.40;76.80;;;;;;5062668;28;20645;-63
2021/06/09 01:50:23;;;;;;;28.13;23.55;;;21.30;76.70;;;;;;5066525;28;20036;-63
2021/06/09 01:52:50;;;;;;;30.70;25.00;;;21.30;76.90;;;;;;5065116;28;20107;-63
2021/06/09 01:55:19;;;;;;;26.67;23.88;;;21.40;77.20;;;;;;5067468;28;20032;-63
2021/06/09 01:57:45;;;;;;;26.90;24.05;;;21.30;77.70;;;;;;5062436;28;20032;-63
2021/06/09 02:00:18;;;;;;;29.30;24.38;;;21.30;77.60;;;;;;5082443;28;20946;-63
2021/06/09 02:02:44;;;;;;;26.10;23.45;;;21.30;77.90;;;;;;5062324;28;20052;-63
2021/06/09 02:05:11;;;;;;;26.13;21.92;;;21.30;78.00;;;;;;5064265;28;20037;-63
2021/06/09 02:07:42;;;;;;;25.95;23.25;;;21.30;78.00;;;;;;5066043;28;20037;-62
2021/06/09 02:10:09;;;;;;;23.98;21.33;;;21.20;77.90;;;;;;5064734;28;20051;-63
2021/06/09 02:12:36;;;;;;;25.45;21.27;;;21.20;77.90;;;;;;5057523;28;20093;-63
2021/06/09 02:15:03;;;;;;;23.55;20.92;;;21.20;78.30;;;;;;5069285;28;20561;-63
2021/06/09 02:17:28;;;;;;;26.00;23.33;;;21.20;78.70;;;;;;5061397;28;20032;-63
2021/06/09 02:19:54;;;;;;;25.85;23.08;;;21.10;78.90;;;;;;5072196;28;20087;-60
2021/06/09 02:22:20;;;;;;;26.20;23.17;;;21.10;79.00;;;;;;5055309;28;20052;-63
2021/06/09 02:24:46;;;;;;;25.77;21.85;;;21.10;78.90;;;;;;5047343;28;20119;-63
2021/06/09 02:27:12;;;;;;;26.02;23.25;;;21.10;78.90;;;;;;5055516;28;20420;-63
2021/06/09 02:29:37;;;;;;;25.45;22.60;;;21.10;79.50;;;;;;5041095;28;20041;-62
2021/06/09 02:32:03;;;;;;;26.13;23.00;;;21.10;79.10;;;;;;5057986;28;20103;-63
2021/06/09 02:34:29;;;;;;;26.60;23.90;;;21.10;79.40;;;;;;5049795;28;20343;-63
2021/06/09 02:36:55;;;;;;;24.63;22.08;;;21.10;79.40;;;;;;5043884;28;20401;-62
2021/06/09 02:39:22;;;;;;;26.38;21.95;;;21.10;79.70;;;;;;5045212;28;20044;-63
2021/06/09 02:41:49;;;;;;;25.48;22.70;;;21.10;79.80;;;;;;5055978;28;20056;-63
2021/06/09 02:44:15;;;;;;;26.40;23.52;;;21.10;80.30;;;;;;5053241;28;20052;-62
2021/06/09 02:46:57;;;;;;;26.95;24.10;;;21.10;80.50;;;;;;5058078;28;20045;-63
2021/06/09 02:49:26;;;;;;;26.10;23.38;;;21.10;81.80;;;;;;5042704;28;20041;-63
2021/06/09 02:52:00;;;;;;;26.80;23.05;;;21.10;80.90;;;;;;5056474;28;20498;-63
2021/06/09 02:54:36;;;;;;;29.20;24.75;;;21.00;81.70;;;;;;5053171;28;20043;-62
2021/06/09 02:57:31;;;;;;;27.52;24.63;;;21.00;82.60;;;;;;5039623;28;20471;-63
2021/06/09 03:00:12;;;;;;;;;;;21.00;83.20;;;;;;5015886;28;20493;-63
2021/06/09 03:02:55;;;;;;;27.45;23.23;;;20.90;83.70;;;;;;5050955;28;20370;-63
2021/06/09 03:05:27;;;;;;;25.95;23.15;;;20.90;83.40;;;;;;5057168;28;20518;-63
2021/06/09 03:08:11;;;;;;;25.17;22.55;;;20.90;82.70;;;;;;5046725;28;20445;-63
2021/06/09 03:10:59;;;;;;;24.65;21.80;;;20.90;82.30;;;;;;4998851;28;20030;-62
2021/06/09 03:16:45;;;;;;;27.55;21.88;;;20.90;83.30;;;;;;5057461;28;20086;-63
2021/06/09 03:19:20;;;;;;;24.70;21.95;;;20.90;83.50;;;;;;5032482;28;20119;-62
2021/06/09 03:21:56;;;;;;;24.27;21.75;;;20.90;83.30;;;;;;5053315;28;20045;-63
2021/06/09 03:24:26;;;;;;;25.60;21.67;;;20.90;83.60;;;;;;5074515;28;20482;-63
2021/06/09 03:26:56;;;;;;;23.63;20.75;;;20.80;83.30;;;;;;5060130;28;20371;-63
2021/06/09 03:29:35;;;;;;;24.60;22.02;;;20.80;83.20;;;;;;5066246;28;20053;-63
2021/06/09 03:32:07;;;;;;;23.17;20.50;;;20.80;83.50;;;;;;5038306;28;20068;-62
2021/06/09 03:34:42;;;;;;;23.88;21.42;;;20.80;83.90;;;;;;5068037;28;20067;-63
2021/06/09 03:37:09;;;;;;;22.55;20.40;;;20.80;85.00;;;;;;5054112;28;20049;-63
2021/06/09 03:39:36;;;;;;;23.40;21.02;;;20.80;84.90;;;;;;5076412;28;20123;-63
2021/06/09 03:42:07;;;;;;;22.88;20.52;;;20.80;84.50;;;;;;5073353;28;20032;-62
2021/06/09 03:44:38;;;;;;;22.13;19.90;;;20.90;84.10;;;;;;5071818;28;20546;-63
2021/06/09 03:47:05;;;;;;;21.88;19.50;;;20.80;84.80;;;;;;5073193;28;20036;-66
2021/06/09 03:49:31;;;;;;;23.85;21.35;;;20.80;84.40;;;;;;5052025;28;20532;-64
2021/06/09 03:51:58;;;;;;;25.52;21.67;;;20.80;84.50;;;;;;5066876;28;20051;-64
2021/06/09 03:54:29;;;;;;;21.50;19.20;;;20.70;85.20;;;;;;5076198;28;20024;-61
2021/06/09 03:56:57;;;;;;;24.10;20.00;;;20.80;85.00;;;;;;5071901;28;20039;-63
2021/06/09 03:59:24;;;;;;;21.13;18.98;;;20.70;84.50;;;;;;5063983;28;20564;-64
2021/06/09 04:01:51;;;;;;;22.83;18.27;;;20.70;84.70;;;;;;5077471;28;20127;-64
2021/06/09 04:04:20;;;;;;;23.52;20.95;;;20.70;84.50;;;;;;5079731;28;20040;-64
2021/06/09 04:06:47;;;;;;;21.05;18.85;;;20.70;84.90;;;;;;5064156;28;20037;-64
2021/06/09 04:09:18;;;;;;;21.90;19.60;;;20.70;84.60;;;;;;5073139;28;20040;-64
2021/06/09 04:11:45;;;;;;;23.08;20.10;;;20.60;84.60;;;;;;5061999;28;20131;-64
2021/06/09 04:14:16;;;;;;;23.60;21.00;;;20.70;84.80;;;;;;5056047;28;20090;-64
2021/06/09 04:16:44;;;;;;;21.77;19.25;;;20.70;85.10;;;;;;5067025;28;20041;-64
2021/06/09 04:19:12;;;;;;;20.90;18.70;;;20.70;85.30;;;;;;5071734;28;20047;-64
2021/06/09 04:21:38;;;;;;;22.45;20.15;;;20.70;85.40;;;;;;5074410;28;20044;-64
2021/06/09 04:24:04;;;;;;;22.08;19.60;;;20.70;85.10;;;;;;5062476;28;20043;-64
2021/06/09 04:26:33;;;;;;;22.00;19.73;;;20.70;85.60;;;;;;5079514;28;20036;-64
2021/06/09 04:28:59;;;;;;;23.98;18.15;;;20.80;85.70;;;;;;5067419;28;20029;-63
2021/06/09 04:31:25;;;;;;;20.50;18.30;;;20.70;85.50;;;;;;5081371;28;20032;-61
2021/06/09 04:33:55;;;;;;;30.38;19.13;;;20.70;85.60;;;;;;5058103;28;20044;-63
2021/06/09 04:36:22;;;;;;;20.30;18.27;;;20.70;86.10;;;;;;5067087;28;20048;-63
2021/06/09 04:38:47;;;;;;;20.75;18.25;;;20.70;86.10;;;;;;5076076;28;20032;-64
2021/06/09 04:41:13;;;;;;;18.50;16.45;;;20.80;86.10;;;;;;5071686;28;20040;-63
2021/06/09 04:43:40;;;;;;;19.83;17.73;;;20.80;86.10;;;;;;5067775;28;20122;-63
2021/06/09 04:46:06;;;;;;;19.10;17.08;;;20.80;85.50;;;;;;5074297;28;20033;-62
2021/06/09 04:48:32;;;;;;;19.80;15.93;;;20.90;85.50;;;;;;5070317;28;20521;-63
2021/06/09 04:50:57;;;;;;;16.90;15.18;;;20.90;85.60;;;;;;5083966;28;20063;-63
2021/06/09 04:53:23;;;;;;;17.75;15.95;;;20.90;85.40;;;;;;5074437;28;20474;-63
2021/06/09 04:55:52;;;;;;;20.70;16.88;;;20.90;85.20;;;;;;5077833;28;20100;-63
2021/06/09 04:58:19;;;;;;;17.40;15.02;;;21.00;85.30;;;;;;5077711;28;20551;-63
2021/06/09 05:00:46;;;;;;;16.83;15.10;;;21.00;85.60;;;;;;5067290;28;20142;-63
2021/06/09 05:03:13;;;;;;;17.98;15.13;;;21.00;85.00;;;;;;5076286;28;20193;-64
2021/06/09 05:05:39;;;;;;;17.40;15.40;;;21.00;84.70;;;;;;5074504;28;20039;-63
2021/06/09 05:08:06;;;;;;;18.83;14.32;;;21.10;84.30;;;;;;5073478;28;20046;-63
2021/06/09 05:10:34;;;;;;;15.68;14.07;;;21.20;84.50;;;;;;5064729;28;20543;-62
2021/06/09 05:13:07;;;;;;;17.27;13.80;;;21.10;84.30;;;;;;5062921;28;20397;-63
2021/06/09 05:15:36;;;;;;;18.98;14.45;;;21.10;84.50;;;;;;5067191;28;20102;-62
2021/06/09 05:18:09;;;;;;;16.27;13.55;;;21.10;84.30;;;;;;5064795;28;20045;-63
2021/06/09 05:20:38;;;;;;;16.83;13.52;;;21.10;83.60;;;;;;5068802;28;20037;-64
2021/06/09 05:23:13;;;;;;;14.10;12.65;;;21.10;83.70;;;;;;5061489;28;20052;-63
2021/06/09 05:25:40;;;;;;;14.13;12.80;;;21.20;84.00;;;;;;5051350;28;20045;-64
2021/06/09 05:28:08;;;;;;;14.07;12.30;;;21.20;83.20;;;;;;5044504;28;20040;-64
2021/06/09 05:30:35;;;;;;;15.75;13.02;;;21.20;83.10;;;;;;5050295;28;20035;-64
2021/06/09 05:33:02;;;;;;;13.20;11.75;;;21.20;83.10;;;;;;5062287;28;20916;-64
2021/06/09 05:35:28;;;;;;;12.73;11.48;;;21.20;83.20;;;;;;5060846;28;20037;-64
2021/06/09 05:37:54;;;;;;;13.25;11.93;;;21.30;81.00;;;;;;5060954;28;20033;-64
2021/06/09 05:40:21;;;;;;;16.95;13.65;;;21.30;82.10;;;;;;5059654;28;20104;-64
2021/06/09 05:42:47;;;;;;;16.27;14.63;;;21.30;80.60;;;;;;5060843;28;20128;-64
2021/06/09 05:45:14;;;;;;;17.80;15.23;;;21.30;80.40;;;;;;5064192;28;20037;-65
2021/06/09 05:47:49;;;;;;;16.52;14.75;;;21.30;80.40;;;;;;5057692;28;20060;-64
2021/06/09 05:50:20;;;;;;;17.00;14.30;;;21.40;81.20;;;;;;5057535;28;20052;-65
2021/06/09 05:52:49;;;;;;;18.80;15.98;;;21.40;81.10;;;;;;5057777;28;20042;-65
2021/06/09 05:55:23;;;;;;;18.75;16.40;;;21.50;80.60;;;;;;5057824;28;20071;-64
2021/06/09 05:57:50;;;;;;;18.80;16.80;;;21.50;79.40;;;;;;5057682;28;20124;-64
2021/06/09 06:00:18;;;;;;;18.58;16.48;;;21.50;79.50;;;;;;5060656;28;20039;-64
2021/06/09 06:02:46;;;;;;;17.90;16.08;;;21.50;78.30;;;;;;5056425;28;20421;-64
2021/06/09 06:05:12;;;;;;;17.65;15.75;;;21.50;78.20;;;;;;5062419;28;20486;-64
2021/06/09 06:07:38;;;;;;;20.50;16.40;;;21.60;78.20;;;;;;5059148;28;20041;-63
2021/06/09 06:10:06;;;;;;;19.23;17.00;;;21.60;77.70;;;;;;5061919;28;20504;-63
2021/06/09 06:12:32;;;;;;;17.70;15.85;;;21.70;77.00;;;;;;5059565;28;20497;-63
2021/06/09 06:14:58;;;;;;;19.48;17.38;;;21.60;77.60;;;;;;5059797;28;20021;-62
2021/06/09 06:17:24;;;;;;;19.55;16.70;;;21.70;76.70;;;;;;5054641;28;20044;-64
2021/06/09 06:19:50;;;;;;;19.27;17.40;;;21.70;76.90;;;;;;5060792;28;20039;-63
2021/06/09 06:22:18;;;;;;;19.88;16.15;;;21.70;76.50;;;;;;5071171;28;20134;-63
2021/06/09 06:24:49;;;;;;;19.08;16.23;;;21.80;76.50;;;;;;5073109;28;20032;-62
2021/06/09 06:27:16;;;;;;;17.25;15.45;;;21.90;76.00;;;;;;5073816;28;20117;-63
2021/06/09 06:29:44;;;;;;;19.25;17.02;;;21.90;75.80;;;;;;5065966;28;20064;-62
2021/06/09 06:32:12;;;;;;;20.60;15.85;;;21.90;75.10;;;;;;5056459;28;20097;-63
2021/06/09 06:34:50;;;;;;;17.52;14.60;;;21.90;74.00;;;;;;5067136;28;20048;-65
2021/06/09 06:37:17;;;;;;;14.88;13.25;;;22.00;72.80;;;;;;5065961;28;20142;-63
2021/06/09 06:39:44;;;;;;;19.17;15.18;;;22.00;72.80;;;;;;5059168;28;20068;-63
2021/06/09 06:42:10;;;;;;;18.95;15.50;;;22.00;72.80;;;;;;5079322;28;20557;-63
2021/06/09 06:44:40;;;;;;;19.27;16.70;;;22.10;72.80;;;;;;5068588;28;20040;-63
2021/06/09 06:47:06;;;;;;;19.88;16.27;;;22.10;73.20;;;;;;5070068;28;20088;-63
2021/06/09 06:49:43;;;;;;;18.73;16.38;;;22.20;73.30;;;;;;5073829;28;20039;-63
2021/06/09 06:52:10;;;;;;;18.05;16.15;;;22.30;72.80;;;;;;5074450;28;20079;-63
2021/06/09 06:54:35;;;;;;;16.77;14.88;;;22.20;72.20;;;;;;5070517;28;20198;-63
2021/06/09 06:57:01;;;;;;;17.50;15.00;;;22.20;72.20;;;;;;5078495;28;20552;-63
2021/06/09 06:59:28;;;;;;;15.60;13.48;;;22.20;72.20;;;;;;5057625;28;20037;-62
2021/06/09 07:01:54;;;;;;;15.00;12.90;;;22.30;71.80;;;;;;5071696;28;20040;-63
2021/06/09 07:04:21;;;;;;;14.93;13.30;;;22.30;71.10;;;;;;5080245;28;20036;-62
2021/06/09 07:06:49;;;;;;;15.25;13.65;;;22.40;70.30;;;;;;5082369;28;20385;-63
2021/06/09 07:09:19;;;;;;;16.20;13.27;;;22.40;70.10;;;;;;5073360;28;20048;-63
2021/06/09 07:11:47;;;;;;;13.23;11.90;;;22.40;70.30;;;;;;5061551;28;20055;-63
2021/06/09 07:14:14;;;;;;;13.65;12.20;;;22.50;69.40;;;;;;5067332;28;20037;-63
2021/06/09 07:16:41;;;;;;;15.15;12.38;;;22.60;68.90;;;;;;5066307;28;20041;-63
2021/06/09 07:19:07;;;;;;;16.95;11.82;;;22.50;67.80;;;;;;5071641;28;20045;-63
2021/06/09 07:21:34;;;;;;;13.00;11.20;;;22.70;68.10;;;;;;5049890;28;20056;-64
2021/06/09 07:24:02;;;;;;;15.00;11.18;;;22.70;67.70;;;;;;5074346;28;20025;-63
2021/06/09 07:26:31;;;;;;;12.32;10.98;;;22.70;67.50;;;;;;5070299;28;20044;-62
2021/06/09 07:28:57;;;;;;;13.50;11.35;;;22.70;67.30;;;;;;5078025;28;20035;-62
2021/06/09 07:31:27;;;;;;;11.93;9.70;;;22.70;67.30;;;;;;5064069;28;20037;-63
2021/06/09 07:33:53;;;;;;;13.02;11.65;;;22.90;67.00;;;;;;5074872;28;20048;-63
2021/06/09 07:36:24;;;;;;;11.98;10.68;;;22.90;66.80;;;;;;5054850;28;20048;-63
2021/06/09 07:39:11;;;;;;;10.93;9.90;;;22.90;66.30;;;;;;5074780;28;20033;-63
2021/06/09 07:41:41;;;;;;;12.85;11.45;;;23.00;65.60;;;;;;5016409;28;20041;-63
2021/06/09 07:44:09;;;;;;;10.85;9.75;;;23.00;64.90;;;;;;5059213;28;20417;-63
2021/06/09 07:46:37;;;;;;;10.00;9.07;;;23.10;65.60;;;;;;5067194;28;20036;-63
2021/06/09 07:49:07;;;;;;;11.95;10.75;;;23.10;64.90;;;;;;5055199;28;20050;-63
2021/06/09 07:51:35;;;;;;;11.98;9.63;;;23.20;64.40;;;;;;5069393;28;20028;-62
2021/06/09 07:54:01;;;;;;;11.57;10.13;;;23.30;64.80;;;;;;5064617;28;20145;-62
2021/06/09 07:56:38;;;;;;;11.75;10.65;;;23.20;64.40;;;;;;5069835;28;20032;-63
2021/06/09 07:59:06;;;;;;;14.18;10.43;;;23.30;64.10;;;;;;5059931;28;20055;-64
2021/06/09 08:01:32;;;;;;;14.00;10.07;;;23.40;63.70;;;;;;5064961;28;20036;-63
2021/06/09 08:03:58;;;;;;;11.38;9.50;;;23.40;62.30;;;;;;5064010;28;20095;-63
2021/06/09 08:06:25;;;;;;;13.90;10.93;;;23.40;63.20;;;;;;5068081;28;20041;-64
2021/06/09 08:08:51;;;;;;;13.07;10.20;;;23.60;63.50;;;;;;5068780;28;20450;-64
2021/06/09 08:11:18;;;;;;;10.35;9.10;;;23.60;62.70;;;;;;5053959;28;20405;-62
2021/06/09 08:13:44;;;;;;;12.75;11.20;;;23.70;62.90;;;;;;5068648;28;20040;-64
2021/06/09 08:16:15;;;;;;;11.77;10.48;;;23.70;62.10;;;;;;5061574;28;21162;-63
2021/06/09 08:18:43;;;;;;;11.32;9.77;;;23.80;61.30;;;;;;5068110;28;20094;-63
2021/06/09 08:21:20;;;;;;;11.35;10.18;;;23.80;61.90;;;;;;5080651;28;20093;-64
2021/06/09 08:23:49;;;;;;;11.50;10.30;;;23.80;60.60;;;;;;5077436;28;20048;-64
2021/06/09 08:26:17;;;;;;;14.05;11.13;;;23.80;61.10;;;;;;5074763;28;20119;-63
2021/06/09 08:28:44;;;;;;;13.07;11.57;;;23.90;61.30;;;;;;5074389;28;20032;-63
2021/06/09 08:31:12;;;;;;;11.70;10.45;;;23.90;61.20;;;;;;5070772;28;20044;-63
2021/06/09 08:33:41;;;;;;;12.77;10.82;;;23.90;60.60;;;;;;5074416;28;20489;-63
2021/06/09 08:36:08;;;;;;;11.70;10.50;;;24.00;60.80;;;;;;5063976;28;20044;-63
2021/06/09 08:38:35;;;;;;;12.02;9.50;;;24.00;60.50;;;;;;5074169;28;20544;-63
2021/06/09 08:41:02;;;;;;;10.80;9.45;;;24.10;60.50;;;;;;5078743;28;20040;-62
2021/06/09 08:43:28;;;;;;;10.80;9.70;;;24.10;59.70;;;;;;5069572;28;20045;-63
2021/06/09 08:45:54;;;;;;;9.55;8.57;;;24.40;59.30;;;;;;5071582;28;20036;-63
2021/06/09 08:48:20;;;;;;;11.20;9.23;;;24.40;59.30;;;;;;5068818;28;20044;-64
2021/06/09 08:50:48;;;;;;;8.45;7.72;;;24.40;59.00;;;;;;5062786;28;20070;-63
2021/06/09 08:53:19;;;;;;;10.27;8.38;;;24.50;59.20;;;;;;5068438;28;20062;-63
2021/06/09 08:55:46;;;;;;;10.10;8.98;;;24.60;59.20;;;;;;5081449;28;20040;-63
2021/06/09 08:58:12;;;;;;;11.70;10.38;;;24.70;58.70;;;;;;5076347;28;20093;-63
2021/06/09 09:00:40;;;;;;;10.27;9.38;;;24.70;58.40;;;;;;5080518;28;20043;-63
2021/06/09 09:03:07;;;;;;;12.32;10.75;;;24.60;58.90;;;;;;5077305;28;20052;-63
2021/06/09 09:05:33;;;;;;;15.40;12.65;;;24.80;58.70;;;;;;5072664;28;20037;-62
2021/06/09 09:08:01;;;;;;;11.57;10.30;;;24.80;58.60;;;;;;5081111;28;20036;-63
2021/06/09 09:10:27;;;;;;;12.45;10.13;;;24.80;57.90;;;;;;5076164;28;20052;-63
2021/06/09 09:12:53;;;;;;;10.98;9.90;;;24.80;58.30;;;;;;5070930;28;20335;-64
2021/06/09 09:15:20;;;;;;;12.57;10.05;;;25.00;57.70;;;;;;5062902;28;20043;-63
2021/06/09 09:17:50;;;;;;;9.98;8.57;;;25.00;57.30;;;;;;5062433;28;20036;-63
2021/06/09 09:20:27;;;;;;;11.50;9.40;;;25.00;57.00;;;;;;5058094;28;20409;-63
2021/06/09 09:22:57;;;;;;;13.30;9.85;;;25.10;57.00;;;;;;5064355;28;20041;-64
2021/06/09 09:25:26;;;;;;;11.48;10.32;;;25.20;56.80;;;;;;5075793;28;20056;-64
2021/06/09 09:28:00;;;;;;;12.57;10.55;;;25.20;56.50;;;;;;5080567;28;20074;-62
2021/06/09 09:30:29;;;;;;;12.27;9.93;;;25.30;56.20;;;;;;5072919;28;20032;-61
2021/06/09 09:33:08;;;;;;;12.40;10.57;;;25.20;56.30;;;;;;5082589;28;20036;-62
2021/06/09 09:35:43;;;;;;;11.77;10.45;;;25.20;54.80;;;;;;5024847;28;20116;-63
2021/06/09 09:38:16;;;;;;;11.48;10.38;;;25.20;55.40;;;;;;5069607;28;20112;-63
2021/06/09 09:41:02;;;;;;;12.20;10.52;;;25.10;55.20;;;;;;5067727;28;20032;-63
2021/06/09 09:43:41;;;;;;;11.65;10.48;;;25.30;55.00;;;;;;5074839;28;20040;-62
2021/06/09 09:46:12;;;;;;;12.55;10.73;;;25.50;54.70;;;;;;5074020;28;20029;-64
2021/06/09 09:48:41;;;;;;;10.02;8.98;;;25.50;55.60;;;;;;5076331;28;20063;-63
2021/06/09 09:51:08;;;;;;;10.30;9.05;;;25.60;54.90;;;;;;5078304;28;20392;-62
2021/06/09 09:53:34;;;;;;;9.85;8.95;;;25.70;55.30;;;;;;5081042;28;20036;-62
2021/06/09 09:56:08;;;;;;;8.43;7.63;;;25.70;53.90;;;;;;5078471;28;20044;-63
2021/06/09 09:58:37;;;;;;;12.75;10.40;;;25.70;53.60;;;;;;5080295;28;20037;-64
2021/06/09 10:01:20;;;;;;;11.73;10.35;;;25.80;54.20;;;;;;5072853;28;20162;-63
2021/06/09 10:03:48;;;;;;;12.63;9.90;;;25.90;53.10;;;;;;5059696;28;20048;-64
2021/06/09 10:06:18;;;;;;;9.40;8.60;;;26.00;53.80;;;;;;5077863;28;20040;-63
2021/06/09 10:08:43;;;;;;;15.32;9.18;;;26.20;53.10;;;;;;5078422;28;20059;-63
2021/06/09 10:11:13;;;;;;;13.55;9.40;;;26.20;54.10;;;;;;5066652;28;20044;-63
2021/06/09 10:13:39;;;;;;;11.25;10.25;;;26.40;54.00;;;;;;5065816;28;20128;-64
2021/06/09 10:16:32;;;;;;;10.57;8.90;;;26.50;53.20;;;;;;5070661;28;20865;-63
2021/06/09 10:19:12;;;;;;;11.32;10.23;;;26.60;52.80;;;;;;5079851;28;20085;-62
2021/06/09 10:21:50;;;;;;;11.82;9.48;;;26.80;52.50;;;;;;5057079;28;20044;-62
2021/06/09 10:24:16;;;;;;;12.00;8.68;;;27.00;52.00;;;;;;5077400;28;20051;-63
2021/06/09 10:26:51;;;;;;;11.93;9.85;;;27.10;51.20;;;;;;5072988;28;20041;-63
2021/06/09 10:29:19;;;;;;;8.27;7.55;;;27.10;48.10;;;;;;5069912;28;20090;-62
2021/06/09 10:31:53;;;;;;;10.57;9.13;;;27.10;50.90;;;;;;5060853;28;20035;-63
2021/06/09 10:34:21;;;;;;;10.55;9.55;;;27.20;49.40;;;;;;5047349;28;20143;-63
2021/06/09 10:36:49;;;;;;;9.20;8.15;;;27.20;48.80;;;;;;5064540;28;20127;-64
2021/06/09 10:39:17;;;;;;;10.55;9.10;;;27.30;48.50;;;;;;5065938;28;20115;-62
2021/06/09 10:41:45;;;;;;;8.90;8.00;;;27.60;47.10;;;;;;5078139;28;20037;-63
2021/06/09 10:44:13;;;;;;;12.63;11.35;;;27.70;48.10;;;;;;5075755;28;20540;-62
2021/06/09 10:46:43;;;;;;;10.55;9.07;;;27.90;45.90;;;;;;5062107;28;20067;-64
2021/06/09 10:49:17;;;;;;;12.70;11.30;;;28.00;46.10;;;;;;5068152;28;20123;-64
2021/06/09 10:51:44;;;;;;;10.75;9.70;;;28.20;46.10;;;;;;5059942;28;20036;-63
2021/06/09 10:54:12;;;;;;;10.10;9.10;;;28.70;46.00;;;;;;5063253;28;20048;-62
2021/06/09 10:56:40;;;;;;;9.55;8.65;;;30.30;43.80;;;;;;5075840;28;20122;-63
2021/06/09 10:59:06;;;;;;;8.70;7.78;;;31.30;42.00;;;;;;5055883;28;20421;-63
2021/06/09 11:01:32;;;;;;;10.82;9.30;;;31.80;39.80;;;;;;5059053;28;20101;-63
2021/06/09 11:03:59;;;;;;;10.07;9.10;;;32.00;38.40;;;;;;5071356;28;20056;-63
2021/06/09 11:06:36;;;;;;;10.57;9.55;;;32.20;38.50;;;;;;5075756;28;20149;-63
2021/06/09 11:09:26;;;;;;;8.93;8.05;;;32.30;36.10;;;;;;5039489;28;20044;-62
2021/06/09 11:12:13;;;;;;;11.13;10.02;;;32.80;34.00;;;;;;5072714;28;20059;-63
2021/06/09 11:14:51;;;;;;;9.82;8.90;;;32.60;32.50;;;;;;5030464;28;20502;-62
2021/06/09 11:17:37;;;;;;;8.18;7.40;;;32.00;34.10;;;;;;5056576;28;20028;-62
2021/06/09 11:20:24;;;;;;;8.52;7.68;;;32.50;32.30;;;;;;5039995;28;20721;-62
2021/06/09 11:23:14;;;;;;;7.10;6.57;;;32.90;32.50;;;;;;5071720;28;20117;-62
2021/06/09 11:25:46;;;;;;;10.65;9.68;;;32.80;32.20;;;;;;5035493;28;20044;-63
2021/06/09 11:28:13;;;;;;;9.73;8.93;;;33.10;34.10;;;;;;5069743;28;20124;-64
2021/06/09 11:30:42;;;;;;;8.65;7.55;;;33.10;32.90;;;;;;5075020;28;20040;-64
2021/06/09 11:33:10;;;;;;;9.85;8.95;;;33.40;32.60;;;;;;5072203;28;20393;-63
2021/06/09 11:35:48;;;;;;;7.65;6.85;;;33.00;32.90;;;;;;5058297;28;20040;-63
2021/06/09 11:38:14;;;;;;;5.95;5.45;;;32.60;31.00;;;;;;5056402;28;20119;-63
2021/06/09 11:41:01;;;;;;;7.63;6.95;;;32.00;32.10;;;;;;5054836;28;20173;-63
2021/06/09 11:43:50;;;;;;;6.68;6.10;;;32.00;30.40;;;;;;5078258;28;20043;-62
2021/06/09 11:46:21;;;;;;;7.10;5.65;;;32.20;31.80;;;;;;5058026;28;20068;-64
2021/06/09 11:48:53;;;;;;;7.05;6.25;;;32.00;32.20;;;;;;5055495;28;20036;-64
2021/06/09 11:51:41;;;;;;;5.82;5.43;;;32.10;30.10;;;;;;5059539;28;20036;-64
2021/06/09 11:54:21;;;;;;;5.80;5.30;;;32.50;29.90;;;;;;5046821;28;20456;-63
2021/06/09 11:56:52;;;;;;;7.55;5.22;;;32.40;32.00;;;;;;5073247;28;20466;-62
2021/06/09 11:59:27;;;;;;;7.18;6.38;;;32.80;30.60;;;;;;5079857;28;20043;-64
2021/06/09 12:01:55;;;;;;;8.55;5.90;;;32.80;30.10;;;;;;5076948;28;20436;-64
2021/06/09 12:04:37;;;;;;;6.47;5.88;;;32.60;29.20;;;;;;5078216;28;21854;-63
2021/06/09 12:07:08;;;;;;;6.57;5.97;;;32.60;29.90;;;;;;5050422;28;20040;-63
2021/06/09 12:09:36;;;;;;;5.78;5.28;;;32.60;29.90;;;;;;5051960;28;20032;-63
2021/06/09 12:12:09;;;;;;;6.07;5.68;;;33.00;29.70;;;;;;5053218;28;20131;-62
2021/06/09 12:14:37;;;;;;;8.55;7.82;;;33.30;29.20;;;;;;5082856;28;20415;-62
2021/06/09 12:17:11;;;;;;;6.88;6.28;;;33.50;29.90;;;;;;5056511;28;20493;-62
2021/06/09 12:20:16;;;;;;;5.65;5.25;;;33.40;29.40;;;;;;5072213;28;20139;-62
2021/06/09 12:22:49;;;;;;;4.78;4.38;;;33.10;27.50;;;;;;5021105;28;20040;-62
2021/06/09 12:25:22;;;;;;;5.20;4.70;;;33.10;28.70;;;;;;5070564;28;20083;-63
2021/06/09 12:28:12;;;;;;;6.75;5.88;;;33.40;28.80;;;;;;5060828;28;20126;-63
2021/06/09 12:30:44;;;;;;;5.20;4.80;;;33.60;27.60;;;;;;5011123;28;20492;-62
2021/06/09 12:33:10;;;;;;;5.45;5.05;;;33.30;27.80;;;;;;5056512;28;20037;-62
2021/06/09 12:35:36;;;;;;;5.20;4.70;;;33.70;28.40;;;;;;5058067;28;20494;-62
2021/06/09 12:38:05;;;;;;;6.10;5.32;;;34.30;27.80;;;;;;5053413;28;20462;-62
2021/06/09 12:40:37;;;;;;;5.30;4.85;;;34.70;27.30;;;;;;5057761;28;20051;-62
2021/06/09 12:43:09;;;;;;;4.95;4.65;;;34.70;26.40;;;;;;5050765;28;20049;-63
2021/06/09 12:45:37;;;;;;;6.93;5.25;;;35.60;25.70;;;;;;5057437;28;20457;-62
2021/06/09 12:48:10;;;;;;;6.10;5.63;;;36.80;24.00;;;;;;5073252;28;20024;-62